Contact Us:
Email: info@sawbill.com
Phone: (218)663-7150
Fax: (218)663-7980
Mail: 4620 Sawbill Trail
Box 2129
Tofte, MN 55615


Powered by
Movable Type 3.15
 
Sawbill Weather History Archives: October 2003
Current Sawbill Weather History | « September 2003 | November 2003 »


Date

High
Temperature

Low
Temperature

Barometric
Pressure

Relative
Humidity 7AM

9 AM
Temperature

Moisture

Snow

10/30/03 36 34 30.01 86% 35 .26" 1"
10/29/03 38 32 29.88 84% 34 Trace Trace
10/28/03 38 30 29.68 79% 31 .3" 1.5"
10/27/03 38 30 29.34 85% 34 .01" .5"
10/26/03 34 29 29.88 77% 30 .03" .3"
10/25/03 40 28 30.12 69% 29 Trace Trace
10/24/03 41 34 29.94 85% 34 .24" 1"
10/23/03 45 33 29.94 85% 34 0 Trace
10/22/03 42 35 29.91 82% 39 .09"  
10/21/03 46 35 30.00 79% 35 0  
10/20/03 64 38 29.89 73% 38 0  
10/19/03 52 36 29.66 81% 38 0  
10/18/03 60 33 29.99 82% 38 0  
10/17/03 44 31 29.85 82% 31 0 Trace
10/16/03 50 30 30.15 76% 31 0  
10/15/03 45 32 29.96 75% 32 0  
10/14/03 53 35 29.82 83% 38 .03"  
10/13/03 60 39 29.82 85% 40 Trace  
10/12/03 59 44 29.77 79% 44 0  
10/11/03 61 46 29.79 84% 46 .77"  
10/10/03 72 49 29.88 85% 50 0  
10/09/03 74 50 29.94 85% 54 0  
10/08/03 80 48 29.96 86% 51 .02"  
10/06/03 80 46 29.88 84% 48 0  
10/05/03 56 27 30.06 76% 30 0  
10/04/03 48 27 30/05 73% 28 0  
10/02/03 43 26 29.59 83% 40 .12"  
10/01/03 41 25 30.24 75% 26 0  
 


Home I Trip Planning I Rentals and Outfitting I Reservations I Campgrounds I Sawbill Store I Sawbill News I Contact

© 1997 - 2017, Sawbill Canoe Outfitters, Inc. I Privacy Policy